createdAt,value
2022-08-19T00:02:06.027Z,11.70
2022-08-19T00:04:37.964Z,11.30
2022-08-19T00:07:08.289Z,12.00
2022-08-19T00:09:37.281Z,11.80
2022-08-19T00:12:06.106Z,12.40
2022-08-19T00:14:34.761Z,11.70
2022-08-19T00:17:04.623Z,11.80
2022-08-19T00:19:34.861Z,11.80
2022-08-19T00:24:33.391Z,13.10
2022-08-19T00:27:25.748Z,14.00
2022-08-19T00:29:52.963Z,13.10
2022-08-19T00:32:22.460Z,14.40
2022-08-19T00:34:56.307Z,11.60
2022-08-19T00:37:27.461Z,13.00
2022-08-19T00:39:57.163Z,13.00
2022-08-19T00:42:30.015Z,12.40
2022-08-19T00:44:59.095Z,12.80
2022-08-19T00:47:28.112Z,13.00
2022-08-19T00:49:59.661Z,12.90
2022-08-19T00:52:34.863Z,12.80
2022-08-19T00:55:07.870Z,12.90
2022-08-19T00:57:41.397Z,13.00
2022-08-19T01:00:16.504Z,12.50
2022-08-19T01:02:45.493Z,13.50
2022-08-19T01:05:28.933Z,13.50
2022-08-19T01:07:59.663Z,13.10
2022-08-19T01:10:36.702Z,13.10
2022-08-19T01:13:06.503Z,13.60
2022-08-19T01:15:42.209Z,13.50
2022-08-19T01:18:13.988Z,13.70
2022-08-19T01:20:44.194Z,14.20
2022-08-19T01:23:14.459Z,14.40
2022-08-19T01:25:49.031Z,15.20
2022-08-19T01:28:21.833Z,14.40
2022-08-19T01:31:07.898Z,14.30
2022-08-19T01:33:36.839Z,14.00
2022-08-19T01:36:33.994Z,13.70
2022-08-19T01:39:07.221Z,14.10
2022-08-19T01:41:36.652Z,13.70
2022-08-19T01:44:18.159Z,14.20
2022-08-19T01:46:50.006Z,15.80
2022-08-19T01:49:21.457Z,15.80
2022-08-19T01:51:51.023Z,14.80
2022-08-19T01:54:23.047Z,14.60
2022-08-19T01:57:08.477Z,15.30
2022-08-19T01:59:37.811Z,15.80
2022-08-19T02:02:09.819Z,16.20
2022-08-19T02:04:42.208Z,14.60
2022-08-19T02:07:11.598Z,15.40
2022-08-19T02:09:40.446Z,15.10
2022-08-19T02:12:10.197Z,15.30
2022-08-19T02:14:39.087Z,13.70
2022-08-19T02:17:08.328Z,15.50
2022-08-19T02:19:38.999Z,14.90
2022-08-19T02:22:09.955Z,15.00
2022-08-19T02:24:40.377Z,15.10
2022-08-19T02:27:08.971Z,15.90
2022-08-19T02:29:38.415Z,14.90
2022-08-19T02:32:07.082Z,15.20
2022-08-19T02:34:36.467Z,14.40
2022-08-19T02:37:05.652Z,15.00
2022-08-19T02:39:34.175Z,14.80
2022-08-19T02:42:03.692Z,16.10
2022-08-19T02:44:32.955Z,15.80
2022-08-19T02:47:01.672Z,16.90
2022-08-19T02:49:34.722Z,16.60
2022-08-19T02:52:04.528Z,16.20
2022-08-19T02:54:33.522Z,15.80
2022-08-19T02:57:02.074Z,16.00
2022-08-19T02:59:34.421Z,16.50
2022-08-19T03:02:03.188Z,16.00
2022-08-19T03:04:32.101Z,17.10
2022-08-19T03:07:11.148Z,16.70
2022-08-19T03:09:40.528Z,16.80
2022-08-19T03:14:39.266Z,16.30
2022-08-19T03:17:09.345Z,15.80
2022-08-19T03:19:40.505Z,17.50
2022-08-19T03:22:09.298Z,16.60
2022-08-19T03:24:38.592Z,16.00
2022-08-19T03:27:08.405Z,17.60
2022-08-19T03:29:43.113Z,18.20
2022-08-19T03:32:32.181Z,18.50
2022-08-19T03:35:02.454Z,18.60
2022-08-19T03:37:31.295Z,17.60
2022-08-19T03:40:00.434Z,17.80
2022-08-19T03:42:38.780Z,17.30
2022-08-19T03:45:19.273Z,16.90
2022-08-19T03:47:48.628Z,17.40
2022-08-19T03:50:17.591Z,16.50
2022-08-19T03:52:52.528Z,17.00
2022-08-19T03:55:21.273Z,16.50
2022-08-19T03:57:49.915Z,15.50
2022-08-19T04:00:19.269Z,16.30
2022-08-19T04:02:58.627Z,16.80
2022-08-19T04:05:30.739Z,17.40
2022-08-19T04:08:00.538Z,16.60
2022-08-19T04:10:29.755Z,14.80
2022-08-19T04:12:59.005Z,16.50
2022-08-19T04:15:28.916Z,16.10
2022-08-19T04:17:57.490Z,15.20
2022-08-19T04:20:26.588Z,15.10
2022-08-19T04:22:55.802Z,15.00
2022-08-19T04:25:24.371Z,14.20
2022-08-19T04:27:53.149Z,13.70
2022-08-19T04:30:23.882Z,14.30
2022-08-19T04:32:52.535Z,14.40
2022-08-19T04:35:24.792Z,14.70
2022-08-19T04:37:53.937Z,13.90
2022-08-19T04:40:41.668Z,14.00
2022-08-19T04:43:15.891Z,14.40
2022-08-19T04:45:46.433Z,15.40
2022-08-19T04:48:26.933Z,14.80
2022-08-19T04:50:59.232Z,14.10
2022-08-19T04:53:34.647Z,13.70
2022-08-19T04:56:11.292Z,15.50
2022-08-19T04:58:44.874Z,14.00
2022-08-19T05:01:15.908Z,13.70
2022-08-19T05:03:45.243Z,14.40
2022-08-19T05:06:17.115Z,14.30
2022-08-19T05:08:46.379Z,12.40
2022-08-19T05:11:19.542Z,11.50
2022-08-19T05:13:50.595Z,10.80
2022-08-19T05:16:22.673Z,9.80
2022-08-19T05:19:10.493Z,9.40
2022-08-19T05:22:00.272Z,8.90
2022-08-19T05:24:29.770Z,8.60
2022-08-19T05:26:59.931Z,8.40
2022-08-19T05:29:36.229Z,9.30
2022-08-19T05:32:10.742Z,8.30
2022-08-19T05:34:40.029Z,9.20
2022-08-19T05:37:10.070Z,9.50
2022-08-19T05:39:40.189Z,8.10
2022-08-19T05:44:45.177Z,10.00
2022-08-19T05:47:16.208Z,8.70
2022-08-19T05:49:44.949Z,7.20
2022-08-19T05:52:18.960Z,6.80
2022-08-19T05:54:50.924Z,6.60
2022-08-19T05:57:21.069Z,5.40
2022-08-19T05:59:57.916Z,5.60
2022-08-19T06:02:28.941Z,5.90
2022-08-19T06:04:58.056Z,5.80
2022-08-19T06:07:26.729Z,5.70
2022-08-19T06:10:01.014Z,6.10
2022-08-19T06:12:35.593Z,5.30
2022-08-19T06:15:08.947Z,5.70
2022-08-19T06:17:37.605Z,5.30
2022-08-19T06:20:13.521Z,5.80
2022-08-19T06:22:44.541Z,33.80
2022-08-19T06:25:15.824Z,5.60
2022-08-19T06:28:11.412Z,5.40
2022-08-19T06:30:34.743Z,5.70
2022-08-19T06:33:03.939Z,5.60
2022-08-19T06:35:32.631Z,4.70
2022-08-19T06:38:06.605Z,4.50
2022-08-19T06:40:36.919Z,4.50
2022-08-19T06:43:09.433Z,5.10
2022-08-19T06:45:55.095Z,5.40
2022-08-19T06:48:36.606Z,4.60
2022-08-19T06:51:12.564Z,5.40
2022-08-19T06:53:41.236Z,4.80
2022-08-19T06:56:10.741Z,5.00
2022-08-19T06:58:39.695Z,4.90
2022-08-19T07:01:09.857Z,4.50
2022-08-19T07:03:40.547Z,4.90
2022-08-19T07:06:32.524Z,5.80
2022-08-19T07:09:04.640Z,4.60
2022-08-19T07:11:34.225Z,4.30
2022-08-19T07:14:04.848Z,5.10
2022-08-19T07:16:34.037Z,4.80
2022-08-19T07:21:44.827Z,4.20
2022-08-19T07:24:13.729Z,4.20
2022-08-19T07:26:44.153Z,4.80
2022-08-19T07:29:13.784Z,4.70
2022-08-19T07:31:43.419Z,4.30
2022-08-19T07:34:14.681Z,4.70
2022-08-19T07:36:44.710Z,4.60
2022-08-19T07:39:17.944Z,5.00
2022-08-19T07:41:48.373Z,4.60
2022-08-19T07:44:18.089Z,5.50
2022-08-19T07:46:53.158Z,4.90
2022-08-19T07:49:22.941Z,5.10
2022-08-19T07:54:23.375Z,5.40
2022-08-19T07:56:52.416Z,5.70
2022-08-19T07:59:23.032Z,5.30
2022-08-19T08:01:52.491Z,5.30
2022-08-19T08:07:31.437Z,4.60
2022-08-19T08:10:03.349Z,4.80
2022-08-19T08:12:40.253Z,4.50
2022-08-19T08:15:13.217Z,5.30
2022-08-19T08:17:49.357Z,5.50
2022-08-19T08:20:21.811Z,4.60
2022-08-19T08:25:38.752Z,5.00
2022-08-19T08:28:11.450Z,5.20
2022-08-19T08:30:49.257Z,5.10
2022-08-19T08:33:33.159Z,4.40
2022-08-19T08:36:06.881Z,5.20
2022-08-19T08:38:40.823Z,5.30
2022-08-19T08:41:21.337Z,5.30
2022-08-19T08:43:53.323Z,5.70
2022-08-19T08:46:47.553Z,5.10
2022-08-19T08:49:38.652Z,5.90
2022-08-19T08:52:22.950Z,5.20
2022-08-19T08:54:59.100Z,5.30
2022-08-19T08:57:37.696Z,5.70
2022-08-19T09:00:17.689Z,5.10
2022-08-19T09:02:50.507Z,5.40
2022-08-19T09:05:25.825Z,5.20
2022-08-19T09:08:07.094Z,5.10
2022-08-19T09:10:44.639Z,6.30
2022-08-19T09:13:51.484Z,9.80
2022-08-19T09:16:28.234Z,5.00
2022-08-19T09:19:03.468Z,5.30
2022-08-19T09:21:36.082Z,6.10
2022-08-19T09:24:10.808Z,5.60
2022-08-19T09:26:48.470Z,5.90
2022-08-19T09:29:24.453Z,5.50
2022-08-19T09:34:22.120Z,5.90
2022-08-19T09:36:54.937Z,6.50
2022-08-19T09:39:23.657Z,5.70
2022-08-19T09:41:54.297Z,5.40
2022-08-19T09:44:23.123Z,6.10
2022-08-19T09:46:52.585Z,5.80
2022-08-19T09:49:24.313Z,5.40
2022-08-19T09:51:57.709Z,6.00
2022-08-19T09:58:33.262Z,5.70
2022-08-19T10:01:03.473Z,5.40
2022-08-19T10:03:33.787Z,5.30
2022-08-19T10:06:05.309Z,5.00
2022-08-19T10:08:50.290Z,5.40
2022-08-19T10:11:28.162Z,5.80
2022-08-19T10:14:07.169Z,6.20
2022-08-19T10:16:39.778Z,5.70
2022-08-19T10:19:09.158Z,5.50
2022-08-19T10:21:38.859Z,5.60
2022-08-19T10:24:10.093Z,5.40
2022-08-19T10:26:46.563Z,6.00
2022-08-19T10:29:33.060Z,6.30
2022-08-19T10:32:09.784Z,6.00
2022-08-19T10:34:48.069Z,5.90
2022-08-19T10:37:23.835Z,7.70
2022-08-19T10:40:03.991Z,5.90
2022-08-19T10:42:33.226Z,5.60
2022-08-19T10:45:02.373Z,6.00
2022-08-19T10:47:36.018Z,5.20
2022-08-19T10:50:28.800Z,5.70
2022-08-19T10:53:00.097Z,6.00
2022-08-19T10:55:48.242Z,5.10
2022-08-19T10:58:24.057Z,5.50
2022-08-19T11:00:56.284Z,5.90
2022-08-19T11:03:26.720Z,4.70
2022-08-19T11:06:03.051Z,4.60
2022-08-19T11:08:32.970Z,5.40
2022-08-19T11:11:04.441Z,5.30
2022-08-19T11:13:36.920Z,5.50
2022-08-19T11:16:14.587Z,4.70
2022-08-19T11:18:49.922Z,5.10
2022-08-19T11:21:28.829Z,5.10
2022-08-19T11:24:00.014Z,4.40
2022-08-19T11:26:30.752Z,4.30
2022-08-19T11:29:00.424Z,4.60
2022-08-19T11:34:04.464Z,4.80
2022-08-19T11:36:35.340Z,4.60
2022-08-19T11:39:06.782Z,5.10
2022-08-19T11:41:36.759Z,4.50
2022-08-19T11:44:08.998Z,4.70
2022-08-19T11:46:39.379Z,4.50
2022-08-19T11:49:14.070Z,4.90
2022-08-19T11:51:45.946Z,4.30
2022-08-19T11:54:17.573Z,4.10
2022-08-19T11:56:51.071Z,4.80
2022-08-19T11:59:20.124Z,4.40
2022-08-19T12:01:50.246Z,4.80
2022-08-19T12:04:19.518Z,4.60
2022-08-19T12:06:49.494Z,4.40
2022-08-19T12:09:19.077Z,4.40
2022-08-19T12:11:49.906Z,4.20
2022-08-19T12:14:18.995Z,4.40
2022-08-19T12:19:22.283Z,4.00
2022-08-19T12:21:54.536Z,3.50
2022-08-19T12:24:25.712Z,3.60
2022-08-19T12:26:56.786Z,3.40
2022-08-19T12:29:32.156Z,3.70
2022-08-19T12:32:04.043Z,2.60
2022-08-19T12:34:34.311Z,3.10
2022-08-19T12:37:05.966Z,3.40
2022-08-19T12:39:43.103Z,5.00
2022-08-19T12:42:14.592Z,2.90
2022-08-19T12:44:44.936Z,6.70
2022-08-19T12:47:19.628Z,3.90
2022-08-19T12:49:54.622Z,3.90
2022-08-19T12:52:27.208Z,4.10
2022-08-19T12:54:58.180Z,3.60
2022-08-19T12:57:37.139Z,3.40
2022-08-19T13:00:32.783Z,3.90
2022-08-19T13:03:04.462Z,4.90
2022-08-19T13:05:35.820Z,4.00
2022-08-19T13:08:04.999Z,3.60
2022-08-19T13:10:36.903Z,4.90
2022-08-19T13:13:08.717Z,4.70
2022-08-19T13:15:43.472Z,8.80
2022-08-19T13:18:13.896Z,8.60
2022-08-19T13:20:43.269Z,9.10
2022-08-19T13:23:21.803Z,8.80
2022-08-19T13:26:06.561Z,8.90
2022-08-19T13:28:55.316Z,11.20
2022-08-19T13:31:44.579Z,10.90
2022-08-19T13:34:14.802Z,11.10
2022-08-19T13:36:44.003Z,11.50
2022-08-19T13:39:13.757Z,12.30
2022-08-19T13:41:50.123Z,12.10
2022-08-19T13:44:19.679Z,11.80
2022-08-19T13:46:50.000Z,11.40
2022-08-19T13:49:23.073Z,11.80
2022-08-19T13:51:51.923Z,11.60
2022-08-19T13:54:21.764Z,13.30
2022-08-19T13:59:19.219Z,13.60
2022-08-19T14:01:47.701Z,12.80
2022-08-19T14:04:16.463Z,14.70
2022-08-19T14:06:45.450Z,29.00
2022-08-19T14:09:14.040Z,15.50
2022-08-19T14:11:42.670Z,15.10
2022-08-19T14:14:16.238Z,14.60
2022-08-19T14:16:45.179Z,15.10
2022-08-19T14:19:14.094Z,14.50
2022-08-19T14:21:42.947Z,14.90
2022-08-19T14:24:11.595Z,14.60
2022-08-19T14:26:40.647Z,14.80
2022-08-19T14:29:09.211Z,12.90
2022-08-19T14:31:37.814Z,15.20
2022-08-19T14:34:06.637Z,15.10
2022-08-19T14:36:39.135Z,14.20
2022-08-19T14:39:11.059Z,15.10
2022-08-19T14:41:43.167Z,13.50
2022-08-19T14:44:16.229Z,13.50
2022-08-19T14:46:48.567Z,13.40
2022-08-19T14:49:20.265Z,14.10
2022-08-19T14:51:49.057Z,16.40
2022-08-19T14:54:19.114Z,13.60
2022-08-19T14:56:47.970Z,13.60
2022-08-19T14:59:17.333Z,13.60
2022-08-19T15:01:46.290Z,12.90
2022-08-19T15:04:15.345Z,14.20
2022-08-19T15:06:44.519Z,13.70
2022-08-19T15:09:13.172Z,13.60
2022-08-19T15:11:42.213Z,13.00
2022-08-19T15:14:11.445Z,13.40
2022-08-19T15:16:41.892Z,13.00
2022-08-19T15:19:11.439Z,16.50
2022-08-19T15:21:40.253Z,14.80
2022-08-19T15:24:10.443Z,13.70
2022-08-19T15:26:40.017Z,14.10
2022-08-19T15:29:09.609Z,13.50
2022-08-19T15:31:38.919Z,13.70
2022-08-19T15:34:08.660Z,14.10
2022-08-19T15:36:38.571Z,13.60
2022-08-19T15:39:12.031Z,14.10
2022-08-19T15:41:43.553Z,13.30
2022-08-19T15:44:19.322Z,13.70
2022-08-19T15:46:49.459Z,13.00
2022-08-19T15:49:19.862Z,14.40
2022-08-19T15:51:52.151Z,13.40
2022-08-19T15:54:22.291Z,14.20
2022-08-19T15:57:10.887Z,13.30
2022-08-19T16:00:01.575Z,12.40
2022-08-19T16:02:54.357Z,13.40
2022-08-19T16:05:48.202Z,13.50
2022-08-19T16:08:18.137Z,13.00
2022-08-19T16:13:16.273Z,12.90
2022-08-19T16:15:45.426Z,12.60
2022-08-19T16:18:14.231Z,12.90
2022-08-19T16:20:45.156Z,12.80
2022-08-19T16:23:14.498Z,12.70
2022-08-19T16:25:43.855Z,13.90
2022-08-19T16:28:13.188Z,12.30
2022-08-19T16:30:48.394Z,11.80
2022-08-19T16:33:22.860Z,11.90
2022-08-19T16:36:00.344Z,12.20
2022-08-19T16:38:38.231Z,12.70
2022-08-19T16:41:08.300Z,11.80
2022-08-19T16:43:39.625Z,11.80
2022-08-19T16:46:09.870Z,11.90
2022-08-19T16:51:14.313Z,11.90
2022-08-19T16:53:45.826Z,12.20
2022-08-19T16:56:15.878Z,12.50
2022-08-19T16:58:44.710Z,11.90
2022-08-19T17:01:14.682Z,12.50
2022-08-19T17:04:00.013Z,11.90
2022-08-19T17:06:51.672Z,11.60
2022-08-19T17:09:44.322Z,11.50
2022-08-19T17:12:38.020Z,10.80
2022-08-19T17:15:32.836Z,11.50
2022-08-19T17:18:31.660Z,10.90
2022-08-19T17:21:35.046Z,11.70
2022-08-19T17:24:28.333Z,11.00
2022-08-19T17:27:26.807Z,10.90
2022-08-19T17:30:25.166Z,11.70
2022-08-19T17:36:13.556Z,12.30
2022-08-19T17:42:05.206Z,12.30
2022-08-19T17:44:36.983Z,11.40
2022-08-19T17:47:06.526Z,12.20
2022-08-19T17:49:37.785Z,31.00
2022-08-19T17:52:10.049Z,12.50
2022-08-19T17:54:40.954Z,11.90
2022-08-19T17:57:10.993Z,12.00
2022-08-19T18:02:10.804Z,12.00
2022-08-19T18:04:43.396Z,12.20
2022-08-19T18:07:14.404Z,11.60
2022-08-19T18:09:49.453Z,12.30
2022-08-19T18:12:25.098Z,12.70
2022-08-19T18:14:54.304Z,12.50
2022-08-19T18:17:23.657Z,11.90
2022-08-19T18:19:53.256Z,12.70
2022-08-19T18:22:29.068Z,12.60
2022-08-19T18:24:59.095Z,12.50
2022-08-19T18:30:00.037Z,12.90
2022-08-19T18:32:34.916Z,13.10
2022-08-19T18:35:10.308Z,13.00
2022-08-19T18:37:40.540Z,12.20
2022-08-19T18:40:32.494Z,14.10
2022-08-19T18:43:11.613Z,12.60
2022-08-19T18:46:02.580Z,12.70
2022-08-19T18:48:50.233Z,14.30
2022-08-19T18:51:19.556Z,14.60
2022-08-19T18:53:49.058Z,12.30
2022-08-19T18:58:51.202Z,15.40
2022-08-19T19:03:55.255Z,13.40
2022-08-19T19:06:35.130Z,13.20
2022-08-19T19:09:04.956Z,12.70
2022-08-19T19:11:38.217Z,13.70
2022-08-19T19:14:23.016Z,12.50
2022-08-19T19:17:04.768Z,13.10
2022-08-19T19:19:34.768Z,13.60
2022-08-19T19:22:05.416Z,13.20
2022-08-19T19:24:34.615Z,12.90
2022-08-19T19:27:07.647Z,13.10
2022-08-19T19:29:37.624Z,13.90
2022-08-19T19:34:40.651Z,14.70
2022-08-19T19:37:10.144Z,14.10
2022-08-19T19:39:46.173Z,13.60
2022-08-19T19:42:20.336Z,13.40
2022-08-19T19:44:55.223Z,15.00
2022-08-19T19:47:25.048Z,14.70
2022-08-19T19:50:14.807Z,14.30
2022-08-19T19:52:46.854Z,15.40
2022-08-19T19:55:20.456Z,14.80
2022-08-19T19:57:50.319Z,14.70
2022-08-19T20:00:20.737Z,14.60
2022-08-19T20:02:51.295Z,14.30
2022-08-19T20:05:21.762Z,13.80
2022-08-19T20:08:11.480Z,14.00
2022-08-19T20:10:41.984Z,14.90
2022-08-19T20:13:15.911Z,14.80
2022-08-19T20:15:46.250Z,17.60
2022-08-19T20:18:16.235Z,14.30
2022-08-19T20:20:51.332Z,15.30
2022-08-19T20:23:22.960Z,14.80
2022-08-19T20:25:52.720Z,15.40
2022-08-19T20:28:24.007Z,16.10
2022-08-19T20:30:55.285Z,16.00
2022-08-19T20:35:53.670Z,17.90
2022-08-19T20:38:24.689Z,18.10
2022-08-19T20:40:53.379Z,18.00
2022-08-19T20:43:23.820Z,19.20
2022-08-19T20:45:53.412Z,19.90
2022-08-19T20:48:22.353Z,21.50
2022-08-19T20:50:51.994Z,21.00
2022-08-19T20:53:23.463Z,21.60
2022-08-19T20:55:52.352Z,20.50
2022-08-19T20:58:24.759Z,20.70
2022-08-19T21:00:58.592Z,21.90
2022-08-19T21:03:30.686Z,20.10
2022-08-19T21:05:59.992Z,20.60
2022-08-19T21:08:29.101Z,20.50
2022-08-19T21:10:59.324Z,20.90
2022-08-19T21:13:28.162Z,19.70
2022-08-19T21:15:57.732Z,21.50
2022-08-19T21:18:27.931Z,20.20
2022-08-19T21:20:56.727Z,20.70
2022-08-19T21:23:27.880Z,21.50
2022-08-19T21:25:58.929Z,21.10
2022-08-19T21:28:35.027Z,22.70
2022-08-19T21:31:07.427Z,20.70
2022-08-19T21:33:37.277Z,22.20
2022-08-19T21:36:06.837Z,21.00
2022-08-19T21:38:35.797Z,21.50
2022-08-19T21:41:06.573Z,21.80
2022-08-19T21:43:38.163Z,22.60
2022-08-19T21:46:07.856Z,22.90
2022-08-19T21:48:37.520Z,23.00
2022-08-19T21:51:06.492Z,22.90
2022-08-19T21:53:36.059Z,22.90
2022-08-19T21:56:06.769Z,21.50
2022-08-19T21:58:39.133Z,22.50
2022-08-19T22:01:08.376Z,22.30
2022-08-19T22:03:39.238Z,22.00
2022-08-19T22:06:08.882Z,22.90
2022-08-19T22:08:38.163Z,22.90
2022-08-19T22:11:06.703Z,21.40
2022-08-19T22:13:40.394Z,21.60
2022-08-19T22:16:10.738Z,22.20
2022-08-19T22:18:39.512Z,23.50
2022-08-19T22:21:11.889Z,23.10
2022-08-19T22:23:44.933Z,22.80
2022-08-19T22:26:19.246Z,22.50
2022-08-19T22:28:48.725Z,23.50
2022-08-19T22:31:19.161Z,22.30
2022-08-19T22:33:48.512Z,23.10
2022-08-19T22:36:18.185Z,22.90
2022-08-19T22:38:48.278Z,21.40
2022-08-19T22:43:47.069Z,23.10
2022-08-19T22:48:48.357Z,21.40
2022-08-19T22:51:49.124Z,22.40
2022-08-19T22:54:18.628Z,22.90
2022-08-19T22:56:48.520Z,21.10
2022-08-19T22:59:17.146Z,22.80
2022-08-19T23:01:47.115Z,22.60
2022-08-19T23:04:15.804Z,21.70
2022-08-19T23:06:47.880Z,22.60
2022-08-19T23:09:17.359Z,22.20
2022-08-19T23:11:48.206Z,21.00
2022-08-19T23:14:19.729Z,21.40
2022-08-19T23:16:51.371Z,22.20
2022-08-19T23:19:21.541Z,21.60
2022-08-19T23:21:52.969Z,22.30
2022-08-19T23:24:21.777Z,23.10
2022-08-19T23:27:09.993Z,22.30
2022-08-19T23:29:58.364Z,22.60
2022-08-19T23:32:27.474Z,21.80
2022-08-19T23:34:57.462Z,21.90
2022-08-19T23:37:29.355Z,22.20
2022-08-19T23:39:57.996Z,22.10
2022-08-19T23:42:26.703Z,22.00
2022-08-19T23:45:05.777Z,23.40
2022-08-19T23:47:36.012Z,23.80
2022-08-19T23:50:11.226Z,23.40
2022-08-19T23:52:47.779Z,23.10
2022-08-19T23:55:18.585Z,24.40
2022-08-19T23:57:48.383Z,23.80
